LEMH Airport Information

Runway Information
Runway 01R Length 6890 ft width 148 ft
Elevation 272 ft Threshold ft Heading 9
Runway 19L Length 6890 ft Width 148 ft
Elevation 298 ft Threshold ft Heading 189
Runway 01L Length 7710 ft width 148 ft
Elevation 277 ft Threshold ft Heading 9
Runway 19R Length 7710 ft Width 148 ft
Elevation 298 ft Threshold ft Heading 189
Runway 01 Length 8366 ft width 148 ft
Elevation 278 ft Threshold ft Heading 8
Runway 19 Length 8366 ft Width 148 ft
Elevation 303 ft Threshold ft Heading 188
Airport Frequencies
Type APP Name APP Frequency 119.65 MHZ
Type ATIS Name ATIS Frequency 112.6 MHZ
Type GND Name GND Frequency 121.75 MHZ
Type TWR Name TWR Frequency 118.2 MHZ
Airport Navaids
Type VOR-DME Name Menorca Frequency 112600 KHZ
Type NDB Name Menorca Frequency 344 KHZ
Airport Weather Information & NOTAM
ADDS - METARS form results

(0640 UTC 13 August 2022)
Data provider http://aviationweather.gov/metar/data/
 
METAR text: LEMH 130630Z 23008KT 200V260 CAVOK 28/24 Q1010
Conditions at: LEMH (MAHON/MENORCA IS, ES) observed 0630 UTC 13 August 2022
Temperature: 28.0°C (82°F)
Dewpoint: 24.0°C (75°F) [RH = 79%]
Pressure (altimeter): 29.82 inches Hg (1010.0 mb)
Winds: from the SW (230 degrees) at 9 MPH (8 knots; 4.1 m/s)
Visibility: 6 or more miles (10+ km)
Ceiling: ceiling and visibility are OK
Clouds: unknown
Weather: no significant weather observed at this time

METAR text: LEMH 130600Z 23007KT 200V260 CAVOK 27/25 Q1010
Conditions at: LEMH (MAHON/MENORCA IS, ES) observed 0600 UTC 13 August 2022
Temperature: 27.0°C (81°F)
Dewpoint: 25.0°C (77°F) [RH = 89%]
Pressure (altimeter): 29.82 inches Hg (1010.0 mb)
Winds: from the SW (230 degrees) at 8 MPH (7 knots; 3.6 m/s)
Visibility: 6 or more miles (10+ km)
Ceiling: ceiling and visibility are OK
Clouds: unknown
Weather: no significant weather observed at this time

Forecast for: LEMH (MAHON/MENORCA IS, ES)
Text: TAF LEMH 130200Z 1303/1403 23010KT CAVOK TX35/1312Z TN23/1305Z
Forecast period: 0300 to 1300 UTC 13 August 2022
Forecast type: FROM: standard forecast or significant change
Winds: from the SW (230 degrees) at 12 MPH (10 knots; 5.1 m/s)
Visibility: 6 or more miles (10+ km)
Ceiling: unknown
Clouds: missing
Weather: no significant weather forecast for this period
Text: BECMG 1313/1316 VRB03KT
Forecast period: 1300 UTC 13 August 2022 to 0300 UTC 14 August 2022
Forecast type: BECOMING: Conditions expected to become as follows by 1600 UTC 13 August 2022
Winds: variable direction winds at 3 MPH (3 knots; 1.5 m/s)
Visibility: 6 or more miles (10+ km)
Ceiling: unknown
Clouds: missing
Weather: no significant weather forecast for this period